createdAt,value
2022-11-20T00:02:06.914Z,39.00
2022-11-20T00:04:35.359Z,42.30
2022-11-20T00:07:03.834Z,35.77
2022-11-20T00:09:32.177Z,36.40
2022-11-20T00:12:00.515Z,30.00
2022-11-20T00:14:28.854Z,28.43
2022-11-20T00:16:57.337Z,27.37
2022-11-20T00:19:27.176Z,26.53
2022-11-20T00:21:56.594Z,27.73
2022-11-20T00:24:24.921Z,34.17
2022-11-20T00:26:53.264Z,36.70
2022-11-20T00:29:21.841Z,45.73
2022-11-20T00:31:50.403Z,45.87
2022-11-20T00:34:18.863Z,38.83
2022-11-20T00:36:48.764Z,35.07
2022-11-20T00:39:17.180Z,33.40
2022-11-20T00:41:45.584Z,38.17
2022-11-20T00:44:13.956Z,38.97
2022-11-20T00:46:42.342Z,42.30
2022-11-20T00:49:10.712Z,38.17
2022-11-20T00:51:39.061Z,37.00
2022-11-20T00:54:08.929Z,35.27
2022-11-20T00:56:37.276Z,31.07
2022-11-20T00:59:05.706Z,32.07
2022-11-20T01:01:35.320Z,30.43
2022-11-20T01:04:03.787Z,29.67
2022-11-20T01:06:34.323Z,30.90
2022-11-20T01:09:05.447Z,29.27
2022-11-20T01:11:37.146Z,29.10
2022-11-20T01:14:07.903Z,32.17
2022-11-20T01:16:38.970Z,29.73
2022-11-20T01:19:08.716Z,32.63
2022-11-20T01:21:39.095Z,33.03
2022-11-20T01:24:09.833Z,33.70
2022-11-20T01:26:41.541Z,28.70
2022-11-20T01:29:15.413Z,27.90
2022-11-20T01:31:44.721Z,26.43
2022-11-20T01:34:15.286Z,26.10
2022-11-20T01:36:44.458Z,25.70
2022-11-20T01:39:16.225Z,23.50
2022-11-20T01:42:09.608Z,24.07
2022-11-20T01:44:54.842Z,22.90
2022-11-20T01:47:29.590Z,24.73
2022-11-20T01:50:02.206Z,24.20
2022-11-20T01:52:35.029Z,25.50
2022-11-20T01:55:08.876Z,22.00
2022-11-20T01:57:40.301Z,22.27
2022-11-20T02:00:11.171Z,25.77
2022-11-20T02:02:41.437Z,25.03
2022-11-20T02:05:19.859Z,24.77
2022-11-20T02:07:49.096Z,25.33
2022-11-20T02:10:17.805Z,25.37
2022-11-20T02:13:05.027Z,26.93
2022-11-20T02:15:35.639Z,25.73
2022-11-20T02:18:04.285Z,24.47
2022-11-20T02:20:32.831Z,25.20
2022-11-20T02:23:07.656Z,23.97
2022-11-20T02:25:38.605Z,24.03
2022-11-20T02:28:08.155Z,23.63
2022-11-20T02:30:36.548Z,24.33
2022-11-20T02:33:05.029Z,22.80
2022-11-20T02:35:48.434Z,23.67
2022-11-20T02:38:17.270Z,24.20
2022-11-20T02:40:51.401Z,23.47
2022-11-20T02:43:22.707Z,22.50
2022-11-20T02:45:51.092Z,23.63
2022-11-20T02:48:19.644Z,24.67
2022-11-20T02:50:47.966Z,25.87
2022-11-20T02:53:16.352Z,24.53
2022-11-20T02:55:44.794Z,24.67
2022-11-20T02:58:14.669Z,23.93
2022-11-20T03:00:43.467Z,23.13
2022-11-20T03:03:11.802Z,22.80
2022-11-20T03:05:40.214Z,23.30
2022-11-20T03:08:08.598Z,21.73
2022-11-20T03:10:36.975Z,24.97
2022-11-20T03:13:05.317Z,24.97
2022-11-20T03:15:35.422Z,24.07
2022-11-20T03:18:03.833Z,25.83
2022-11-20T03:20:32.269Z,25.13
2022-11-20T03:23:00.561Z,25.70
2022-11-20T03:25:28.995Z,25.00
2022-11-20T03:27:57.618Z,24.10
2022-11-20T03:30:30.416Z,24.30
2022-11-20T03:33:01.396Z,24.37
2022-11-20T03:35:29.783Z,25.37
2022-11-20T03:37:58.118Z,27.57
2022-11-20T03:40:26.549Z,26.40
2022-11-20T03:42:54.990Z,26.83
2022-11-20T03:45:23.370Z,26.00
2022-11-20T03:47:51.885Z,26.73
2022-11-20T03:50:21.777Z,25.37
2022-11-20T03:52:50.113Z,23.90
2022-11-20T03:55:18.507Z,24.60
2022-11-20T03:57:46.836Z,25.90
2022-11-20T04:00:16.515Z,27.13
2022-11-20T04:02:44.825Z,25.63
2022-11-20T04:05:13.203Z,26.87
2022-11-20T04:07:43.201Z,26.03
2022-11-20T04:10:11.707Z,25.67
2022-11-20T04:12:40.089Z,24.93
2022-11-20T04:15:09.156Z,24.53
2022-11-20T04:17:37.522Z,22.53
2022-11-20T04:20:06.872Z,25.20
2022-11-20T04:22:35.289Z,23.23
2022-11-20T04:25:05.524Z,27.47
2022-11-20T04:27:33.992Z,26.07
2022-11-20T04:30:02.408Z,24.00
2022-11-20T04:32:30.930Z,24.90
2022-11-20T04:34:59.352Z,25.10
2022-11-20T04:37:27.833Z,25.17
2022-11-20T04:39:56.217Z,23.37
2022-11-20T04:42:31.699Z,23.50
2022-11-20T04:45:00.182Z,24.57
2022-11-20T04:47:28.536Z,22.97
2022-11-20T04:49:57.002Z,21.77
2022-11-20T04:52:25.542Z,22.53
2022-11-20T04:54:55.094Z,23.60
2022-11-20T04:57:23.554Z,24.40
2022-11-20T04:59:53.319Z,24.40
2022-11-20T05:02:21.832Z,23.33
2022-11-20T05:04:50.481Z,23.57
2022-11-20T05:07:19.104Z,24.50
2022-11-20T05:09:47.508Z,24.63
2022-11-20T05:12:15.859Z,24.50
2022-11-20T05:14:44.282Z,24.07
2022-11-20T05:17:14.419Z,24.93
2022-11-20T05:19:42.792Z,24.50
2022-11-20T05:22:11.109Z,24.50
2022-11-20T05:24:39.541Z,24.23
2022-11-20T05:27:07.962Z,26.03
2022-11-20T05:29:36.429Z,28.73
2022-11-20T05:32:04.824Z,26.80
2022-11-20T05:34:34.618Z,27.53
2022-11-20T05:37:03.074Z,26.07
2022-11-20T05:39:31.600Z,26.70
2022-11-20T05:42:13.797Z,26.10
2022-11-20T05:44:42.268Z,23.77
2022-11-20T05:47:10.601Z,24.90
2022-11-20T05:49:40.435Z,25.53
2022-11-20T05:52:08.749Z,25.07
2022-11-20T05:54:37.198Z,26.77
2022-11-20T05:57:05.801Z,24.70
2022-11-20T05:59:34.176Z,26.73
2022-11-20T06:02:02.533Z,28.33
2022-11-20T06:04:31.242Z,29.13
2022-11-20T06:07:01.027Z,28.53
2022-11-20T06:09:29.432Z,27.43
2022-11-20T06:11:57.839Z,27.77
2022-11-20T06:14:26.521Z,29.33
2022-11-20T06:16:54.906Z,31.57
2022-11-20T06:19:23.626Z,43.27
2022-11-20T06:21:52.512Z,41.40
2022-11-20T06:24:22.240Z,32.83
2022-11-20T06:26:50.669Z,34.37
2022-11-20T06:29:19.310Z,34.50
2022-11-20T06:31:47.808Z,37.20
2022-11-20T06:34:16.187Z,35.37
2022-11-20T06:36:44.516Z,33.33
2022-11-20T06:39:13.335Z,32.00
2022-11-20T06:41:43.205Z,30.90
2022-11-20T06:44:11.671Z,29.07
2022-11-20T06:46:40.016Z,30.60
2022-11-20T06:49:08.543Z,33.63
2022-11-20T06:51:36.908Z,35.23
2022-11-20T06:54:05.259Z,35.30
2022-11-20T06:56:33.727Z,31.37
2022-11-20T06:59:06.691Z,30.33
2022-11-20T07:01:36.172Z,29.00
2022-11-20T07:04:05.178Z,29.90
2022-11-20T07:06:33.844Z,31.93
2022-11-20T07:09:02.758Z,44.40
2022-11-20T07:11:31.118Z,38.70
2022-11-20T07:13:59.834Z,31.50
2022-11-20T07:16:30.062Z,30.37
2022-11-20T07:18:58.421Z,29.00
2022-11-20T07:21:26.810Z,27.70
2022-11-20T07:23:55.169Z,25.83
2022-11-20T07:26:23.531Z,25.97
2022-11-20T07:28:51.947Z,28.23
2022-11-20T07:31:20.297Z,29.50
2022-11-20T07:33:50.437Z,29.20
2022-11-20T07:36:18.927Z,30.60
2022-11-20T07:38:47.307Z,30.10
2022-11-20T07:41:15.668Z,29.23
2022-11-20T07:43:44.052Z,27.17
2022-11-20T07:46:12.372Z,29.80
2022-11-20T07:48:40.862Z,28.23
2022-11-20T07:51:10.711Z,26.53
2022-11-20T07:53:39.149Z,25.53
2022-11-20T07:56:08.346Z,25.83
2022-11-20T07:58:36.827Z,24.17
2022-11-20T08:01:06.699Z,27.70
2022-11-20T08:03:35.439Z,26.40
2022-11-20T08:06:04.139Z,22.57
2022-11-20T08:08:34.942Z,23.80
2022-11-20T08:11:21.940Z,23.33
2022-11-20T08:14:07.609Z,25.00
2022-11-20T08:16:35.968Z,24.50
2022-11-20T08:19:04.356Z,22.60
2022-11-20T08:21:38.015Z,21.50
2022-11-20T08:24:09.303Z,21.63
2022-11-20T08:26:38.356Z,25.37
2022-11-20T08:29:07.581Z,18.73
2022-11-20T08:31:36.327Z,18.13
2022-11-20T08:34:08.974Z,19.77
2022-11-20T08:36:38.538Z,17.53
2022-11-20T08:39:08.353Z,17.27
2022-11-20T08:41:38.155Z,25.13
2022-11-20T08:44:08.121Z,17.73
2022-11-20T08:46:39.312Z,17.97
2022-11-20T08:49:08.891Z,18.83
2022-11-20T08:51:37.791Z,18.90
2022-11-20T08:54:09.392Z,16.80
2022-11-20T08:56:38.179Z,17.00
2022-11-20T09:01:55.344Z,17.27
2022-11-20T09:04:23.732Z,18.07
2022-11-20T09:06:53.204Z,18.40
2022-11-20T09:09:23.370Z,16.23
2022-11-20T09:11:52.294Z,15.20
2022-11-20T09:14:20.670Z,15.50
2022-11-20T09:16:49.095Z,15.17
2022-11-20T09:22:05.929Z,15.10
2022-11-20T09:24:35.996Z,14.83
2022-11-20T09:27:06.428Z,15.80
2022-11-20T09:29:34.897Z,17.37
2022-11-20T09:32:03.277Z,16.83
2022-11-20T09:34:31.657Z,17.33
2022-11-20T09:37:02.978Z,16.00
2022-11-20T09:39:40.076Z,16.53
2022-11-20T09:42:30.544Z,16.10
2022-11-20T09:45:15.253Z,15.40
2022-11-20T09:47:56.992Z,15.80
2022-11-20T09:50:34.365Z,16.60
2022-11-20T09:53:14.511Z,16.67
2022-11-20T09:55:44.816Z,16.37
2022-11-20T09:58:18.796Z,18.10
2022-11-20T10:00:48.171Z,16.13
2022-11-20T10:03:22.055Z,18.53
2022-11-20T10:05:53.704Z,19.00
2022-11-20T10:08:25.585Z,17.97
2022-11-20T10:11:02.944Z,17.10
2022-11-20T10:13:43.240Z,14.73
2022-11-20T10:16:21.109Z,15.57
2022-11-20T10:19:03.720Z,17.70
2022-11-20T10:21:41.799Z,16.83
2022-11-20T10:24:32.418Z,15.60
2022-11-20T10:27:16.553Z,16.60
2022-11-20T10:29:48.798Z,15.53
2022-11-20T10:32:20.588Z,16.30
2022-11-20T10:34:54.318Z,14.90
2022-11-20T10:37:26.823Z,15.33
2022-11-20T10:40:02.145Z,15.17
2022-11-20T10:42:38.677Z,15.47
2022-11-20T10:45:20.920Z,15.93
2022-11-20T10:47:49.281Z,15.30
2022-11-20T10:50:22.977Z,15.03
2022-11-20T10:52:58.949Z,14.37
2022-11-20T10:55:35.398Z,15.53
2022-11-20T10:58:15.854Z,15.17
2022-11-20T11:00:44.660Z,15.07
2022-11-20T11:03:24.953Z,14.27
2022-11-20T11:06:01.141Z,14.23
2022-11-20T11:08:34.336Z,13.70
2022-11-20T11:11:22.934Z,14.40
2022-11-20T11:13:53.284Z,14.70
2022-11-20T11:16:26.564Z,14.33
2022-11-20T11:19:06.172Z,13.13
2022-11-20T11:21:34.620Z,15.57
2022-11-20T11:24:34.744Z,13.80
2022-11-20T11:26:59.575Z,14.67
2022-11-20T11:29:30.718Z,15.13
2022-11-20T11:32:07.781Z,13.53
2022-11-20T11:34:36.776Z,11.53
2022-11-20T11:37:05.677Z,11.53
2022-11-20T11:39:35.702Z,12.40
2022-11-20T11:42:04.542Z,11.00
2022-11-20T11:44:53.673Z,10.90
2022-11-20T11:47:27.073Z,11.13
2022-11-20T11:50:05.063Z,12.40
2022-11-20T11:52:38.896Z,13.03
2022-11-20T11:55:13.543Z,12.97
2022-11-20T11:57:49.638Z,11.50
2022-11-20T12:00:22.512Z,12.47
2022-11-20T12:03:05.366Z,15.63
2022-11-20T12:05:41.021Z,16.50
2022-11-20T12:08:19.384Z,12.40
2022-11-20T12:10:54.231Z,11.87
2022-11-20T12:13:43.267Z,17.20
2022-11-20T12:16:16.046Z,11.63
2022-11-20T12:18:45.268Z,12.47
2022-11-20T12:21:23.116Z,12.73
2022-11-20T12:24:18.385Z,12.27
2022-11-20T12:27:04.860Z,12.33
2022-11-20T12:29:45.692Z,10.43
2022-11-20T12:32:40.715Z,11.17
2022-11-20T12:35:26.701Z,11.27
2022-11-20T12:38:10.508Z,10.50
2022-11-20T12:40:47.451Z,10.50
2022-11-20T12:43:38.962Z,10.50
2022-11-20T12:46:24.342Z,10.43
2022-11-20T12:49:26.289Z,10.13
2022-11-20T12:52:10.155Z,9.23
2022-11-20T12:55:15.785Z,9.27
2022-11-20T12:57:52.432Z,9.23
2022-11-20T13:00:22.446Z,8.87
2022-11-20T13:03:23.609Z,9.60
2022-11-20T13:06:02.611Z,9.87
2022-11-20T13:08:35.446Z,9.13
2022-11-20T13:11:12.131Z,8.80
2022-11-20T13:13:52.088Z,8.37
2022-11-20T13:16:28.875Z,8.50
2022-11-20T13:18:57.518Z,8.70
2022-11-20T13:21:39.850Z,8.77
2022-11-20T13:24:08.827Z,9.43
2022-11-20T13:26:37.295Z,9.10
2022-11-20T13:29:12.020Z,9.67
2022-11-20T13:31:46.149Z,9.97
2022-11-20T13:34:25.654Z,9.70
2022-11-20T13:36:57.739Z,9.27
2022-11-20T13:39:30.591Z,16.20
2022-11-20T13:42:00.342Z,14.33
2022-11-20T13:44:36.649Z,10.17
2022-11-20T13:47:05.035Z,9.00
2022-11-20T13:49:41.022Z,8.67
2022-11-20T13:52:41.478Z,8.53
2022-11-20T13:55:19.191Z,10.27
2022-11-20T13:58:18.178Z,17.73
2022-11-20T14:00:51.455Z,55.13
2022-11-20T14:03:44.180Z,16.63
2022-11-20T14:06:17.106Z,14.10
2022-11-20T14:08:51.860Z,11.70
2022-11-20T14:11:21.979Z,10.70
2022-11-20T14:13:59.266Z,9.50
2022-11-20T14:16:29.601Z,41.87
2022-11-20T14:18:59.664Z,43.20
2022-11-20T14:21:30.666Z,23.80
2022-11-20T14:24:14.030Z,22.57
2022-11-20T14:26:45.801Z,18.67
2022-11-20T14:29:15.770Z,15.30
2022-11-20T14:31:47.869Z,13.50
2022-11-20T14:34:22.905Z,11.47
2022-11-20T14:36:54.790Z,15.20
2022-11-20T14:39:27.853Z,11.33
2022-11-20T14:41:56.765Z,10.00
2022-11-20T14:44:29.753Z,10.10
2022-11-20T14:46:59.335Z,11.17
2022-11-20T14:49:28.878Z,11.53
2022-11-20T14:52:05.043Z,10.90
2022-11-20T14:54:34.955Z,11.53
2022-11-20T14:57:05.523Z,11.13
2022-11-20T14:59:35.643Z,11.60
2022-11-20T15:02:07.948Z,12.10
2022-11-20T15:04:47.610Z,13.00
2022-11-20T15:07:27.260Z,14.93
2022-11-20T15:10:08.703Z,15.37
2022-11-20T15:12:39.798Z,12.43
2022-11-20T15:15:13.402Z,12.57
2022-11-20T15:17:43.322Z,11.67
2022-11-20T15:20:16.222Z,10.90
2022-11-20T15:22:44.587Z,13.30
2022-11-20T15:25:19.130Z,11.77
2022-11-20T15:27:50.721Z,11.23
2022-11-20T15:30:21.326Z,11.70
2022-11-20T15:32:50.589Z,11.33
2022-11-20T15:35:19.143Z,12.07
2022-11-20T15:37:47.508Z,11.77
2022-11-20T15:40:17.619Z,12.87
2022-11-20T15:43:06.744Z,13.63
2022-11-20T15:45:41.070Z,15.53
2022-11-20T15:48:14.212Z,15.60
2022-11-20T15:51:00.986Z,15.63
2022-11-20T15:53:29.542Z,14.10
2022-11-20T15:55:59.375Z,13.83
2022-11-20T15:58:28.190Z,14.13
2022-11-20T16:00:56.853Z,13.10
2022-11-20T16:03:25.524Z,13.40
2022-11-20T16:05:53.910Z,20.50
2022-11-20T16:08:22.262Z,24.70
2022-11-20T16:10:50.755Z,24.37
2022-11-20T16:13:38.090Z,22.27
2022-11-20T16:16:10.361Z,19.57
2022-11-20T16:18:38.771Z,18.27
2022-11-20T16:21:07.135Z,15.73
2022-11-20T16:23:35.564Z,14.67
2022-11-20T16:26:12.526Z,16.00
2022-11-20T16:28:42.557Z,15.47
2022-11-20T16:31:12.872Z,18.00
2022-11-20T16:33:41.514Z,19.77
2022-11-20T16:36:11.866Z,20.10
2022-11-20T16:38:40.287Z,22.20
2022-11-20T16:41:14.618Z,25.67
2022-11-20T16:43:52.183Z,25.27
2022-11-20T16:46:21.969Z,24.73
2022-11-20T16:48:55.717Z,25.23
2022-11-20T16:51:25.046Z,23.83
2022-11-20T16:53:56.074Z,28.10
2022-11-20T16:56:25.728Z,26.33
2022-11-20T16:58:57.468Z,20.13
2022-11-20T17:01:27.722Z,27.03
2022-11-20T17:03:58.057Z,33.40
2022-11-20T17:06:28.369Z,32.70
2022-11-20T17:08:57.504Z,27.27
2022-11-20T17:11:26.957Z,25.57
2022-11-20T17:14:00.800Z,22.43
2022-11-20T17:16:29.525Z,21.53
2022-11-20T17:19:02.995Z,21.60
2022-11-20T17:21:33.032Z,23.80
2022-11-20T17:24:03.615Z,24.10
2022-11-20T17:26:32.635Z,25.73
2022-11-20T17:29:04.892Z,23.00
2022-11-20T17:31:34.863Z,22.47
2022-11-20T17:34:04.270Z,22.97
2022-11-20T17:36:33.551Z,21.27
2022-11-20T17:39:02.180Z,22.30
2022-11-20T17:41:31.560Z,24.53
2022-11-20T17:44:02.355Z,23.97
2022-11-20T17:46:33.715Z,22.93
2022-11-20T17:49:02.878Z,23.20
2022-11-20T17:51:33.229Z,23.97
2022-11-20T17:54:03.445Z,23.63
2022-11-20T17:56:50.275Z,22.77
2022-11-20T17:59:20.935Z,22.80
2022-11-20T18:01:49.541Z,20.37
2022-11-20T18:04:18.107Z,21.50
2022-11-20T18:06:47.106Z,19.63
2022-11-20T18:09:16.162Z,20.73
2022-11-20T18:11:45.976Z,20.97
2022-11-20T18:14:32.999Z,20.60
2022-11-20T18:17:05.895Z,20.20
2022-11-20T18:19:41.154Z,19.63
2022-11-20T18:22:15.536Z,19.30
2022-11-20T18:24:45.756Z,21.00
2022-11-20T18:27:16.976Z,27.27
2022-11-20T18:29:48.721Z,36.90
2022-11-20T18:32:19.816Z,42.50
2022-11-20T18:34:49.122Z,25.80
2022-11-20T18:37:18.023Z,23.40
2022-11-20T18:39:47.471Z,23.70
2022-11-20T18:42:35.050Z,23.57
2022-11-20T18:45:04.676Z,23.20
2022-11-20T18:47:38.192Z,22.60
2022-11-20T18:50:09.155Z,23.23
2022-11-20T18:52:41.290Z,22.20
2022-11-20T18:55:11.276Z,22.27
2022-11-20T18:57:39.700Z,22.97
2022-11-20T19:00:10.158Z,22.90
2022-11-20T19:02:42.668Z,22.17
2022-11-20T19:05:12.293Z,23.57
2022-11-20T19:07:40.932Z,22.93
2022-11-20T19:10:09.757Z,24.30
2022-11-20T19:12:38.743Z,28.13
2022-11-20T19:15:08.603Z,24.60
2022-11-20T19:17:37.263Z,24.90
2022-11-20T19:20:08.955Z,27.83
2022-11-20T19:22:38.173Z,39.23
2022-11-20T19:25:07.513Z,30.50
2022-11-20T19:27:36.176Z,27.47
2022-11-20T19:30:06.203Z,35.47
2022-11-20T19:32:35.469Z,65.23
2022-11-20T19:35:04.135Z,64.70
2022-11-20T19:37:35.836Z,72.70
2022-11-20T19:40:05.618Z,109.30
2022-11-20T19:42:34.129Z,93.10
2022-11-20T19:45:24.704Z,50.57
2022-11-20T19:48:07.207Z,31.07
2022-11-20T19:50:36.217Z,115.00
2022-11-20T19:53:04.737Z,260.70
2022-11-20T19:55:33.150Z,180.50
2022-11-20T19:58:02.662Z,226.10
2022-11-20T20:00:33.089Z,180.87
2022-11-20T20:03:01.976Z,48.60
2022-11-20T20:05:30.376Z,25.90
2022-11-20T20:07:58.846Z,22.53
2022-11-20T20:10:27.215Z,27.57
2022-11-20T20:12:55.851Z,25.67
2022-11-20T20:15:24.228Z,30.67
2022-11-20T20:17:55.073Z,28.50
2022-11-20T20:20:24.196Z,41.73
2022-11-20T20:22:52.597Z,32.80
2022-11-20T20:25:21.113Z,30.70
2022-11-20T20:27:49.655Z,24.63
2022-11-20T20:30:18.217Z,97.73
2022-11-20T20:32:48.856Z,352.53
2022-11-20T20:35:20.710Z,392.80
2022-11-20T20:37:49.476Z,100.10
2022-11-20T20:40:19.257Z,94.47
2022-11-20T20:42:47.833Z,45.87
2022-11-20T20:45:16.290Z,31.67
2022-11-20T20:47:44.732Z,29.70
2022-11-20T20:50:14.175Z,37.77
2022-11-20T20:52:44.102Z,37.47
2022-11-20T20:55:12.919Z,40.53
2022-11-20T20:57:42.004Z,38.20
2022-11-20T21:00:11.488Z,47.20
2022-11-20T21:02:39.973Z,71.33
2022-11-20T21:05:08.944Z,56.27
2022-11-20T21:07:58.587Z,42.83
2022-11-20T21:10:28.608Z,44.10
2022-11-20T21:12:57.012Z,42.13
2022-11-20T21:15:25.707Z,33.63
2022-11-20T21:17:54.113Z,28.83
2022-11-20T21:20:39.588Z,30.33
2022-11-20T21:23:11.394Z,30.90
2022-11-20T21:25:41.632Z,33.77
2022-11-20T21:28:13.167Z,47.97
2022-11-20T21:30:45.559Z,62.70
2022-11-20T21:33:13.992Z,55.90
2022-11-20T21:35:42.738Z,48.57
2022-11-20T21:38:11.091Z,49.63
2022-11-20T21:40:40.973Z,46.60
2022-11-20T21:43:09.912Z,45.63
2022-11-20T21:45:38.349Z,39.63
2022-11-20T21:48:07.574Z,37.83
2022-11-20T21:50:36.507Z,39.97
2022-11-20T21:53:05.109Z,37.77
2022-11-20T21:55:33.540Z,37.30
2022-11-20T21:58:03.346Z,36.73
2022-11-20T22:00:31.855Z,34.57
2022-11-20T22:03:00.241Z,38.77
2022-11-20T22:05:28.701Z,41.33
2022-11-20T22:07:57.028Z,39.57
2022-11-20T22:10:25.362Z,39.70
2022-11-20T22:13:14.936Z,43.27
2022-11-20T22:15:59.700Z,37.50
2022-11-20T22:18:29.935Z,34.83
2022-11-20T22:20:58.345Z,30.77
2022-11-20T22:23:27.261Z,40.23
2022-11-20T22:25:56.249Z,38.00
2022-11-20T22:28:25.285Z,37.03
2022-11-20T22:30:59.820Z,36.97
2022-11-20T22:33:29.686Z,36.83
2022-11-20T22:36:06.142Z,37.07
2022-11-20T22:38:39.303Z,37.60
2022-11-20T22:41:10.329Z,37.70
2022-11-20T22:43:40.368Z,37.50
2022-11-20T22:46:12.838Z,36.53
2022-11-20T22:48:43.335Z,34.67
2022-11-20T22:51:14.417Z,57.37
2022-11-20T22:53:44.474Z,70.97
2022-11-20T22:56:15.649Z,37.33
2022-11-20T22:58:46.908Z,34.33
2022-11-20T23:01:22.325Z,35.73
2022-11-20T23:03:53.504Z,24.43
2022-11-20T23:06:22.907Z,337.03
2022-11-20T23:08:52.121Z,188.77
2022-11-20T23:11:22.484Z,112.57
2022-11-20T23:13:56.373Z,231.50
2022-11-20T23:16:28.052Z,62.10
2022-11-20T23:18:57.650Z,48.97
2022-11-20T23:21:30.730Z,38.20
2022-11-20T23:24:02.185Z,37.07
2022-11-20T23:26:35.542Z,37.93
2022-11-20T23:29:04.197Z,38.40
2022-11-20T23:31:36.253Z,42.10
2022-11-20T23:34:05.058Z,42.33
2022-11-20T23:36:34.357Z,42.63
2022-11-20T23:39:02.830Z,43.10
2022-11-20T23:41:32.169Z,119.53
2022-11-20T23:44:01.821Z,86.33
2022-11-20T23:46:30.312Z,73.80
2022-11-20T23:49:01.016Z,82.87
2022-11-20T23:51:30.818Z,42.20
2022-11-20T23:54:04.528Z,35.27
2022-11-20T23:56:34.141Z,32.57
2022-11-20T23:59:03.295Z,33.93
